createdAt,value
2018-12-18T00:01:57.612Z,93.32
2018-12-18T00:04:25.190Z,94.22
2018-12-18T00:06:52.769Z,94.35
2018-12-18T00:09:20.435Z,95.10
2018-12-18T00:11:48.008Z,94.00
2018-12-18T00:14:15.653Z,93.68
2018-12-18T00:16:43.392Z,93.23
2018-12-18T00:19:10.964Z,93.49
2018-12-18T00:21:38.581Z,93.04
2018-12-18T00:24:06.226Z,92.50
2018-12-18T00:26:33.805Z,91.78
2018-12-18T00:29:01.466Z,91.67
2018-12-18T00:31:29.244Z,92.17
2018-12-18T00:33:56.817Z,92.24
2018-12-18T00:36:24.413Z,92.35
2018-12-18T00:38:52.114Z,91.77
2018-12-18T00:41:19.729Z,91.79
2018-12-18T00:43:47.312Z,91.00
2018-12-18T00:46:15.191Z,91.15
2018-12-18T00:48:42.767Z,91.83
2018-12-18T00:51:10.360Z,91.52
2018-12-18T00:53:38.006Z,91.48
2018-12-18T00:56:05.585Z,91.30
2018-12-18T00:58:33.152Z,91.07
2018-12-18T01:01:00.878Z,91.93
2018-12-18T01:03:28.481Z,93.00
2018-12-18T01:05:56.073Z,92.89
2018-12-18T01:08:23.846Z,93.49
2018-12-18T01:10:53.408Z,94.19
2018-12-18T01:13:20.996Z,94.53
2018-12-18T01:15:48.726Z,94.36
2018-12-18T01:18:16.306Z,94.19
2018-12-18T01:20:43.875Z,93.77
2018-12-18T01:23:11.576Z,94.40
2018-12-18T01:25:39.163Z,94.96
2018-12-18T01:28:06.737Z,95.07
2018-12-18T01:30:34.520Z,95.00
2018-12-18T01:33:02.088Z,95.11
2018-12-18T01:35:29.662Z,95.15
2018-12-18T01:37:57.525Z,96.00
2018-12-18T01:40:25.160Z,95.85
2018-12-18T01:42:52.744Z,96.03
2018-12-18T01:45:20.462Z,95.47
2018-12-18T01:47:48.037Z,95.38
2018-12-18T01:50:15.617Z,95.85
2018-12-18T01:52:43.319Z,95.87
2018-12-18T01:55:10.884Z,96.18
2018-12-18T01:57:38.464Z,96.55
2018-12-18T02:00:06.477Z,96.19
2018-12-18T02:02:34.063Z,96.61
2018-12-18T02:05:01.655Z,96.56
2018-12-18T02:07:29.570Z,96.04
2018-12-18T02:09:57.181Z,96.10
2018-12-18T02:12:24.801Z,95.34
2018-12-18T02:14:52.658Z,95.91
2018-12-18T02:17:20.230Z,96.31
2018-12-18T02:19:47.818Z,96.72
2018-12-18T02:22:15.442Z,95.66
2018-12-18T02:24:43.020Z,95.64
2018-12-18T02:27:10.589Z,96.29
2018-12-18T02:29:38.313Z,96.81
2018-12-18T02:32:05.900Z,96.47
2018-12-18T02:34:33.473Z,96.03
2018-12-18T02:37:01.213Z,95.75
2018-12-18T02:39:28.794Z,95.53
2018-12-18T02:41:56.383Z,96.40
2018-12-18T02:44:24.018Z,96.74
2018-12-18T02:46:51.592Z,96.43
2018-12-18T02:49:19.199Z,96.62
2018-12-18T02:51:47.024Z,96.57
2018-12-18T02:54:14.590Z,96.25
2018-12-18T02:56:42.160Z,96.19
2018-12-18T02:59:09.868Z,95.81
2018-12-18T03:01:37.464Z,95.96
2018-12-18T03:04:05.061Z,96.12
2018-12-18T03:06:32.809Z,96.08
2018-12-18T03:09:00.390Z,95.42
2018-12-18T03:11:27.961Z,95.94
2018-12-18T03:13:55.815Z,95.97
2018-12-18T03:16:23.397Z,96.68
2018-12-18T03:18:50.986Z,96.02
2018-12-18T03:24:13.858Z,96.06
2018-12-18T03:26:41.788Z,96.31
2018-12-18T03:29:09.426Z,96.34
2018-12-18T03:31:37.047Z,96.19
2018-12-18T03:34:04.753Z,96.00
2018-12-18T03:36:32.344Z,96.50
2018-12-18T03:38:59.915Z,95.97
2018-12-18T03:41:27.670Z,96.00
2018-12-18T03:43:55.249Z,96.44
2018-12-18T03:46:22.856Z,96.59
2018-12-18T03:48:50.567Z,96.23
2018-12-18T03:51:30.789Z,95.99
2018-12-18T03:53:58.517Z,96.72
2018-12-18T03:56:26.099Z,96.76
2018-12-18T03:58:53.689Z,96.98
2018-12-18T04:01:21.473Z,97.15
2018-12-18T04:03:49.067Z,96.95
2018-12-18T04:06:16.649Z,97.20
2018-12-18T04:08:45.197Z,97.64
2018-12-18T04:11:12.814Z,97.71
2018-12-18T04:13:40.409Z,97.16
2018-12-18T04:16:08.154Z,97.09
2018-12-18T04:18:35.739Z,96.80
2018-12-18T04:21:03.351Z,97.06
2018-12-18T04:23:31.007Z,96.61
2018-12-18T04:25:58.602Z,96.58
2018-12-18T04:28:26.185Z,96.70
2018-12-18T04:30:54.918Z,97.30
2018-12-18T04:33:22.490Z,97.00
2018-12-18T04:35:50.087Z,95.99
2018-12-18T04:38:17.744Z,96.24
2018-12-18T04:40:45.341Z,96.23
2018-12-18T04:43:12.910Z,96.29
2018-12-18T04:45:40.731Z,96.74
2018-12-18T04:48:08.304Z,97.03
2018-12-18T04:50:35.885Z,97.09
2018-12-18T04:53:03.756Z,97.12
2018-12-18T04:55:31.336Z,97.12
2018-12-18T04:57:58.918Z,97.33
2018-12-18T05:00:26.618Z,97.57
2018-12-18T05:02:54.217Z,97.19
2018-12-18T05:05:21.806Z,97.07
2018-12-18T05:07:49.535Z,96.89
2018-12-18T05:10:17.131Z,97.13
2018-12-18T05:12:44.719Z,97.12
2018-12-18T05:15:12.387Z,96.95
2018-12-18T05:17:39.964Z,96.31
2018-12-18T05:20:07.602Z,96.92
2018-12-18T05:22:35.210Z,97.38
2018-12-18T05:25:03.049Z,97.21
2018-12-18T05:27:30.638Z,97.07
2018-12-18T05:29:58.674Z,96.76
2018-12-18T05:32:26.321Z,97.06
2018-12-18T05:34:56.696Z,97.20
2018-12-18T05:37:21.584Z,97.00
2018-12-18T05:39:49.242Z,97.12
2018-12-18T05:42:16.832Z,97.21
2018-12-18T05:44:44.694Z,97.17
2018-12-18T05:47:12.301Z,97.00
2018-12-18T05:49:39.881Z,97.19
2018-12-18T05:52:07.646Z,96.85
2018-12-18T05:54:35.253Z,96.98
2018-12-18T05:57:02.854Z,96.43
2018-12-18T05:59:30.477Z,96.27
2018-12-18T06:01:58.045Z,96.14
2018-12-18T06:04:25.614Z,96.40
2018-12-18T06:06:53.586Z,96.20
2018-12-18T06:09:21.162Z,96.14
2018-12-18T06:11:48.746Z,95.94
2018-12-18T06:14:16.724Z,96.41
2018-12-18T06:16:44.303Z,96.54
2018-12-18T06:19:11.893Z,96.78
2018-12-18T06:21:40.296Z,95.89
2018-12-18T06:24:07.883Z,95.81
2018-12-18T06:26:35.535Z,95.32
2018-12-18T06:29:03.260Z,95.60
2018-12-18T06:31:30.839Z,96.24
2018-12-18T06:33:58.418Z,96.25
2018-12-18T06:36:26.378Z,95.67
2018-12-18T06:38:53.973Z,96.49
2018-12-18T06:41:21.550Z,96.83
2018-12-18T06:43:49.313Z,96.62
2018-12-18T06:46:16.888Z,96.25
2018-12-18T06:48:44.473Z,96.83
2018-12-18T06:51:12.348Z,96.95
2018-12-18T06:53:39.914Z,96.80
2018-12-18T06:56:07.500Z,96.02
2018-12-18T06:58:35.443Z,95.96
2018-12-18T07:01:03.040Z,96.63
2018-12-18T07:03:30.629Z,96.77
2018-12-18T07:05:58.425Z,96.56
2018-12-18T07:08:25.999Z,96.80
2018-12-18T07:10:53.580Z,96.40
2018-12-18T07:13:21.301Z,95.94
2018-12-18T07:15:48.885Z,96.55
2018-12-18T07:18:16.468Z,96.78
2018-12-18T07:20:44.113Z,96.68
2018-12-18T07:23:11.702Z,96.20
2018-12-18T07:25:39.282Z,96.60
2018-12-18T07:28:07.023Z,95.76
2018-12-18T07:30:34.662Z,95.61
2018-12-18T07:33:02.247Z,96.40
2018-12-18T07:35:30.001Z,95.91
2018-12-18T07:37:57.588Z,96.04
2018-12-18T07:40:25.180Z,96.10
2018-12-18T07:42:52.957Z,96.01
2018-12-18T07:45:20.548Z,95.78
2018-12-18T07:47:48.137Z,95.36
2018-12-18T07:50:15.858Z,95.23
2018-12-18T07:52:43.442Z,95.25
2018-12-18T07:55:11.050Z,96.22
2018-12-18T07:57:38.876Z,96.27
2018-12-18T08:00:06.544Z,96.28
2018-12-18T08:02:34.137Z,96.48
2018-12-18T08:05:01.777Z,95.79
2018-12-18T08:07:29.341Z,95.93
2018-12-18T08:09:56.930Z,96.16
2018-12-18T08:12:27.561Z,96.63
2018-12-18T08:14:55.138Z,96.46
2018-12-18T08:17:22.705Z,96.80
2018-12-18T08:19:50.735Z,96.56
2018-12-18T08:22:18.318Z,96.12
2018-12-18T08:24:45.897Z,95.75
2018-12-18T08:27:13.828Z,95.40
2018-12-18T08:29:41.406Z,95.67
2018-12-18T08:32:09.613Z,95.55
2018-12-18T08:34:36.921Z,95.75
2018-12-18T08:37:04.506Z,95.53
2018-12-18T08:39:32.094Z,95.65
2018-12-18T08:41:59.945Z,95.74
2018-12-18T08:44:27.533Z,95.89
2018-12-18T08:46:55.145Z,95.80
2018-12-18T08:49:22.843Z,96.72
2018-12-18T08:51:50.422Z,96.28
2018-12-18T08:54:18.003Z,95.74
2018-12-18T08:56:45.793Z,96.15
2018-12-18T08:59:13.369Z,96.50
2018-12-18T09:01:40.959Z,96.51
2018-12-18T09:04:08.681Z,96.58
2018-12-18T09:06:36.265Z,96.96
2018-12-18T09:09:03.982Z,96.99
2018-12-18T09:11:31.598Z,97.39
2018-12-18T09:13:59.169Z,96.91
2018-12-18T09:16:32.493Z,96.82
2018-12-18T09:19:00.077Z,97.06
2018-12-18T09:21:27.691Z,96.88
2018-12-18T09:23:55.727Z,96.69
2018-12-18T09:26:23.297Z,97.21
2018-12-18T09:28:50.950Z,97.07
2018-12-18T09:31:18.599Z,96.55
2018-12-18T09:33:46.177Z,96.71
2018-12-18T09:36:13.762Z,97.26
2018-12-18T09:41:40.205Z,96.57
2018-12-18T09:44:08.039Z,96.24
2018-12-18T09:46:35.628Z,95.99
2018-12-18T09:49:03.269Z,96.12
2018-12-18T09:51:31.006Z,95.75
2018-12-18T09:53:58.601Z,96.29
2018-12-18T09:56:26.200Z,95.89
2018-12-18T09:58:54.078Z,96.39
2018-12-18T10:01:21.679Z,97.06
2018-12-18T10:03:49.260Z,96.94
2018-12-18T10:06:17.037Z,96.10
2018-12-18T10:08:44.625Z,95.70
2018-12-18T10:11:12.289Z,95.70
2018-12-18T10:13:40.061Z,95.60
2018-12-18T10:16:07.707Z,95.86
2018-12-18T10:18:35.291Z,95.73
2018-12-18T10:21:03.158Z,95.95
2018-12-18T10:23:30.739Z,96.02
2018-12-18T10:25:58.338Z,96.26
2018-12-18T10:28:26.190Z,96.31
2018-12-18T10:30:54.770Z,95.96
2018-12-18T10:33:22.369Z,95.96
2018-12-18T10:35:50.194Z,96.14
2018-12-18T10:38:17.792Z,96.55
2018-12-18T10:40:45.373Z,96.66
2018-12-18T10:43:13.008Z,96.27
2018-12-18T10:45:40.606Z,95.68
2018-12-18T10:48:08.207Z,95.80
2018-12-18T10:50:35.970Z,95.15
2018-12-18T10:53:03.572Z,94.66
2018-12-18T10:55:31.166Z,95.32
2018-12-18T10:57:58.905Z,95.99
2018-12-18T11:00:32.160Z,95.37
2018-12-18T11:02:59.802Z,95.14
2018-12-18T11:05:27.401Z,95.14
2018-12-18T11:07:55.001Z,95.59
2018-12-18T11:10:22.765Z,95.21
2018-12-18T11:12:55.886Z,95.15
2018-12-18T11:15:23.780Z,95.79
2018-12-18T11:17:51.372Z,95.62
2018-12-18T11:20:18.951Z,95.78
2018-12-18T11:22:46.706Z,94.95
2018-12-18T11:25:14.361Z,94.63
2018-12-18T11:27:42.045Z,94.08
2018-12-18T11:30:10.056Z,93.39
2018-12-18T11:32:37.645Z,94.00
2018-12-18T11:35:05.311Z,94.18
2018-12-18T11:37:33.089Z,93.57
2018-12-18T11:40:00.675Z,93.86
2018-12-18T11:42:28.262Z,93.14
2018-12-18T11:44:56.246Z,93.93
2018-12-18T11:47:23.841Z,93.40
2018-12-18T11:49:51.426Z,93.82
2018-12-18T11:52:19.087Z,93.53
2018-12-18T11:54:46.692Z,94.08
2018-12-18T11:57:14.290Z,93.76
2018-12-18T11:59:42.271Z,93.86
2018-12-18T12:02:09.888Z,93.67
2018-12-18T12:04:37.490Z,95.02
2018-12-18T12:07:05.464Z,94.43
2018-12-18T12:09:33.091Z,95.48
2018-12-18T12:12:00.687Z,94.26
2018-12-18T12:14:28.409Z,94.16
2018-12-18T12:16:56.012Z,94.09
2018-12-18T12:19:23.627Z,94.41
2018-12-18T12:21:51.385Z,93.67
2018-12-18T12:24:18.989Z,93.52
2018-12-18T12:26:46.663Z,93.95
2018-12-18T12:29:14.786Z,94.49
2018-12-18T12:31:42.404Z,93.31
2018-12-18T12:34:09.989Z,93.89
2018-12-18T12:36:37.718Z,95.00
2018-12-18T12:39:05.424Z,94.67
2018-12-18T12:41:33.021Z,95.06
2018-12-18T12:44:00.840Z,94.67
2018-12-18T12:46:28.444Z,93.51
2018-12-18T12:48:56.054Z,94.08
2018-12-18T12:51:23.990Z,94.07
2018-12-18T12:53:51.575Z,94.92
2018-12-18T12:56:19.186Z,94.53
2018-12-18T12:58:47.068Z,93.29
2018-12-18T13:01:23.771Z,93.17
2018-12-18T13:03:51.598Z,94.00
2018-12-18T13:06:19.218Z,93.91
2018-12-18T13:08:46.876Z,94.82
2018-12-18T13:11:14.501Z,94.48
2018-12-18T13:13:42.102Z,93.73
2018-12-18T13:16:09.697Z,94.08
2018-12-18T13:18:37.370Z,93.88
2018-12-18T13:21:04.991Z,94.57
2018-12-18T13:23:32.585Z,93.47
2018-12-18T13:26:01.219Z,94.42
2018-12-18T13:28:28.792Z,94.14
2018-12-18T13:31:08.589Z,93.67
2018-12-18T13:33:36.173Z,93.34
2018-12-18T13:36:03.848Z,93.64
2018-12-18T13:38:31.682Z,93.98
2018-12-18T13:40:59.382Z,93.85
2018-12-18T13:43:26.979Z,93.83
2018-12-18T13:45:54.841Z,93.89
2018-12-18T13:48:22.458Z,94.04
2018-12-18T13:50:50.070Z,93.92
2018-12-18T13:53:17.812Z,94.46
2018-12-18T13:55:45.408Z,94.07
2018-12-18T13:58:13.012Z,94.69
2018-12-18T14:00:41.223Z,94.88
2018-12-18T14:03:08.808Z,94.44
2018-12-18T14:05:36.414Z,94.21
2018-12-18T14:08:04.112Z,93.84
2018-12-18T14:10:31.702Z,94.46
2018-12-18T14:12:59.309Z,94.50
2018-12-18T14:15:27.757Z,94.98
2018-12-18T14:17:55.423Z,93.90
2018-12-18T14:20:23.703Z,93.89
2018-12-18T14:22:51.454Z,93.39
2018-12-18T14:25:19.068Z,93.88
2018-12-18T14:27:46.674Z,94.14
2018-12-18T14:30:14.449Z,94.81
2018-12-18T14:32:42.061Z,94.50
2018-12-18T14:35:09.698Z,94.42
2018-12-18T14:37:37.454Z,94.37
2018-12-18T14:40:05.134Z,94.66
2018-12-18T14:42:32.745Z,94.87
2018-12-18T14:45:00.388Z,95.06
2018-12-18T14:47:27.997Z,95.36
2018-12-18T14:49:55.660Z,95.68
2018-12-18T14:52:23.342Z,95.23
2018-12-18T14:54:50.955Z,95.17
2018-12-18T14:57:18.582Z,95.08
2018-12-18T14:59:46.372Z,94.77
2018-12-18T15:02:13.974Z,94.74
2018-12-18T15:04:41.578Z,94.66
2018-12-18T15:07:09.501Z,94.73
2018-12-18T15:09:37.120Z,95.09
2018-12-18T15:12:04.801Z,95.56
2018-12-18T15:14:32.913Z,95.05
2018-12-18T15:17:00.522Z,95.56
2018-12-18T15:19:28.146Z,95.10
2018-12-18T15:21:55.813Z,94.27
2018-12-18T15:24:23.412Z,94.57
2018-12-18T15:26:51.010Z,94.31
2018-12-18T15:29:18.772Z,93.72
2018-12-18T15:31:46.407Z,94.12
2018-12-18T15:34:14.032Z,94.55
2018-12-18T15:36:41.749Z,95.00
2018-12-18T15:39:09.351Z,94.51
2018-12-18T15:41:36.945Z,94.36
2018-12-18T15:44:04.612Z,94.11
2018-12-18T15:46:32.215Z,94.18
2018-12-18T15:48:59.817Z,93.67
2018-12-18T15:51:27.582Z,93.53
2018-12-18T15:53:55.160Z,93.74
2018-12-18T15:56:22.751Z,94.21
2018-12-18T15:58:50.520Z,94.36
2018-12-18T16:01:18.150Z,93.93
2018-12-18T16:03:45.756Z,93.63
2018-12-18T16:06:13.521Z,93.12
2018-12-18T16:08:41.140Z,93.44
2018-12-18T16:11:08.868Z,93.78
2018-12-18T16:13:36.551Z,94.15
2018-12-18T16:16:04.248Z,94.00
2018-12-18T16:18:31.859Z,94.41
2018-12-18T16:20:59.713Z,94.72
2018-12-18T16:23:27.312Z,94.48
2018-12-18T16:25:54.930Z,94.21
2018-12-18T16:28:22.801Z,93.91
2018-12-18T16:30:51.148Z,94.17
2018-12-18T16:33:18.802Z,93.84
2018-12-18T16:35:46.544Z,93.69
2018-12-18T16:38:14.126Z,94.16
2018-12-18T16:40:41.733Z,93.58
2018-12-18T16:43:09.516Z,94.18
2018-12-18T16:45:37.127Z,94.38
2018-12-18T16:48:04.777Z,93.11
2018-12-18T16:50:32.446Z,92.61
2018-12-18T16:53:00.045Z,93.09
2018-12-18T16:55:27.641Z,93.16
2018-12-18T16:57:55.300Z,93.02
2018-12-18T17:00:22.914Z,92.84
2018-12-18T17:02:50.513Z,92.91
2018-12-18T17:05:18.549Z,93.43
2018-12-18T17:07:46.141Z,93.95
2018-12-18T17:10:13.775Z,94.22
2018-12-18T17:12:41.698Z,93.60
2018-12-18T17:15:09.331Z,93.37
2018-12-18T17:17:36.946Z,93.82
2018-12-18T17:20:04.810Z,94.10
2018-12-18T17:22:32.397Z,92.53
2018-12-18T17:24:59.995Z,92.35
2018-12-18T17:27:27.633Z,91.41
2018-12-18T17:29:55.221Z,92.18
2018-12-18T17:32:22.836Z,91.83
2018-12-18T17:34:50.469Z,91.87
2018-12-18T17:37:18.061Z,92.27
2018-12-18T17:39:45.672Z,92.12
2018-12-18T17:42:13.675Z,92.59
2018-12-18T17:44:41.282Z,92.47
2018-12-18T17:47:08.897Z,91.71
2018-12-18T17:49:36.699Z,91.50
2018-12-18T17:52:04.317Z,91.89
2018-12-18T17:54:31.906Z,92.23
2018-12-18T17:56:59.541Z,90.98
2018-12-18T17:59:27.153Z,91.38
2018-12-18T18:01:54.785Z,91.64
2018-12-18T18:04:22.552Z,91.26
2018-12-18T18:06:50.159Z,91.22
2018-12-18T18:09:17.761Z,91.17
2018-12-18T18:11:45.546Z,90.90
2018-12-18T18:14:13.163Z,90.70
2018-12-18T18:16:40.753Z,91.31
2018-12-18T18:19:08.538Z,91.28
2018-12-18T18:21:36.135Z,91.31
2018-12-18T18:24:03.739Z,91.00
2018-12-18T18:26:32.280Z,91.52
2018-12-18T18:28:59.460Z,92.16
2018-12-18T18:31:27.063Z,90.74
2018-12-18T18:33:54.742Z,91.03
2018-12-18T18:36:22.348Z,90.43
2018-12-18T18:38:49.961Z,90.11
2018-12-18T18:41:31.716Z,90.86
2018-12-18T18:43:59.326Z,91.46
2018-12-18T18:46:26.924Z,91.03
2018-12-18T18:48:54.893Z,90.92
2018-12-18T18:51:22.494Z,91.60
2018-12-18T18:53:50.117Z,90.87
2018-12-18T18:56:17.879Z,91.04
2018-12-18T18:58:45.436Z,90.63
2018-12-18T19:01:12.999Z,91.22
2018-12-18T19:03:40.975Z,91.84
2018-12-18T19:06:08.566Z,91.87
2018-12-18T19:08:36.109Z,91.36
2018-12-18T19:11:14.195Z,91.80
2018-12-18T19:13:41.768Z,92.30
2018-12-18T19:16:09.322Z,92.67
2018-12-18T19:18:36.981Z,92.42
2018-12-18T19:21:04.538Z,92.00
2018-12-18T19:23:32.102Z,91.46
2018-12-18T19:25:59.917Z,91.50
2018-12-18T19:28:27.469Z,90.57
2018-12-18T19:30:56.036Z,90.87
2018-12-18T19:33:23.705Z,90.74
2018-12-18T19:35:51.263Z,91.03
2018-12-18T19:38:18.817Z,90.32
2018-12-18T19:40:46.519Z,90.12
2018-12-18T19:43:14.105Z,90.41
2018-12-18T19:45:41.666Z,90.62
2018-12-18T19:48:09.405Z,90.44
2018-12-18T19:50:36.991Z,90.50
2018-12-18T19:53:04.549Z,89.93
2018-12-18T19:55:32.420Z,89.69
2018-12-18T19:57:59.987Z,89.95
2018-12-18T20:00:27.504Z,89.32
2018-12-18T20:02:55.433Z,89.90
2018-12-18T20:05:23.022Z,90.17
2018-12-18T20:07:50.558Z,91.03
2018-12-18T20:10:18.248Z,91.04
2018-12-18T20:12:45.810Z,90.87
2018-12-18T20:15:13.413Z,91.15
2018-12-18T20:17:41.254Z,91.44
2018-12-18T20:20:08.877Z,92.11
2018-12-18T20:22:36.439Z,91.63
2018-12-18T20:25:04.177Z,91.67
2018-12-18T20:27:31.716Z,92.21
2018-12-18T20:29:59.322Z,92.61
2018-12-18T20:32:27.057Z,91.63
2018-12-18T20:34:54.604Z,91.83
2018-12-18T20:37:22.132Z,91.36
2018-12-18T20:39:49.797Z,91.59
2018-12-18T20:42:17.365Z,90.18
2018-12-18T20:44:44.923Z,91.51
2018-12-18T20:47:12.633Z,92.19
2018-12-18T20:49:40.867Z,92.16
2018-12-18T20:52:07.786Z,93.00
2018-12-18T20:54:35.498Z,92.90
2018-12-18T20:57:03.030Z,92.92
2018-12-18T20:59:30.590Z,91.86
2018-12-18T21:01:58.464Z,91.34
2018-12-18T21:04:26.013Z,91.82
2018-12-18T21:06:53.591Z,91.93
2018-12-18T21:09:21.644Z,92.47
2018-12-18T21:11:49.173Z,92.89
2018-12-18T21:14:16.742Z,93.33
2018-12-18T21:16:44.431Z,93.42
2018-12-18T21:19:12.026Z,92.97
2018-12-18T21:21:39.580Z,92.47
2018-12-18T21:24:07.542Z,92.48
2018-12-18T21:26:35.094Z,93.34
2018-12-18T21:29:02.654Z,93.06
2018-12-18T21:31:30.623Z,93.50
2018-12-18T21:33:58.186Z,93.91
2018-12-18T21:36:25.775Z,94.44
2018-12-18T21:38:53.507Z,94.81
2018-12-18T21:41:24.163Z,94.38
2018-12-18T21:43:51.721Z,94.31
2018-12-18T21:46:19.349Z,94.36
2018-12-18T21:48:46.905Z,93.77
2018-12-18T21:51:17.983Z,94.28
2018-12-18T21:53:45.557Z,94.80
2018-12-18T21:56:13.109Z,94.82
2018-12-18T21:58:40.673Z,94.82
2018-12-18T22:01:08.547Z,94.51
2018-12-18T22:03:36.097Z,94.55
2018-12-18T22:06:03.661Z,94.85
2018-12-18T22:08:36.828Z,94.81
2018-12-18T22:11:05.973Z,95.24
2018-12-18T22:13:33.740Z,94.55
2018-12-18T22:16:01.306Z,94.51
2018-12-18T22:18:28.852Z,95.10
2018-12-18T22:20:56.476Z,94.74
2018-12-18T22:23:24.020Z,94.09
2018-12-18T22:25:51.566Z,94.81
2018-12-18T22:28:19.237Z,94.98
2018-12-18T22:30:46.801Z,94.63
2018-12-18T22:33:14.408Z,94.32
2018-12-18T22:35:42.316Z,95.19
2018-12-18T22:38:09.877Z,94.37
2018-12-18T22:40:37.436Z,94.56
2018-12-18T22:43:05.096Z,95.63
2018-12-18T22:45:32.640Z,95.78
2018-12-18T22:48:00.186Z,95.69
2018-12-18T22:50:27.901Z,96.12
2018-12-18T22:52:55.468Z,96.38
2018-12-18T22:55:23.046Z,95.72
2018-12-18T22:57:50.722Z,94.37
2018-12-18T23:00:23.966Z,94.37
2018-12-18T23:02:51.676Z,94.08
2018-12-18T23:05:19.256Z,94.60
2018-12-18T23:07:46.794Z,94.28
2018-12-18T23:10:14.421Z,93.85
2018-12-18T23:12:41.962Z,94.32
2018-12-18T23:15:09.538Z,94.19
2018-12-18T23:17:37.157Z,93.86
2018-12-18T23:20:04.782Z,93.60
2018-12-18T23:22:32.355Z,93.69
2018-12-18T23:25:00.067Z,93.59
2018-12-18T23:27:27.621Z,93.72
2018-12-18T23:29:55.169Z,94.19
2018-12-18T23:32:22.908Z,93.37
2018-12-18T23:34:50.449Z,93.02
2018-12-18T23:37:18.005Z,93.67
2018-12-18T23:39:46.234Z,94.41
2018-12-18T23:42:13.777Z,94.79
2018-12-18T23:44:41.355Z,94.53
2018-12-18T23:47:09.222Z,93.70
2018-12-18T23:49:36.794Z,94.02
2018-12-18T23:52:04.365Z,94.55
2018-12-18T23:54:32.077Z,95.10
2018-12-18T23:56:59.649Z,95.08
2018-12-18T23:59:27.206Z,94.80
